Time;durP1;ratioP1;P1;durP2;ratioP2;P2;SDS_P1;SDS_P2;PMS_P1;PMS_P2;Temp;Humidity;BMP_temperature;BMP_pressure;BME280_temperature;BME280_humidity;BME280_pressure;Samples;Min_cycle;Max_cycle;Signal;HPM_P1;HPM_P2
2022/06/19 00:00:14;0.00;0.00;0.62;0.00;0.00;0.62;2.97;2.30;;;30.40;30.20;;;;;;2252321;61;20926;-55
2022/06/19 00:03:01;0.00;0.00;0.62;0.00;0.00;0.62;1.80;1.70;;;30.30;30.10;;;;;;2252051;61;20385;-53
2022/06/19 00:05:46;0.00;0.00;0.62;0.00;0.00;0.62;2.80;2.10;;;30.30;30.10;;;;;;2251706;61;20386;-53
2022/06/19 00:08:33;0.00;0.00;0.62;0.00;0.00;0.62;2.60;2.30;;;30.30;30.10;;;;;;2252184;61;20383;-55
2022/06/19 00:11:21;0.00;0.00;0.62;0.00;0.00;0.62;1.70;1.50;;;30.30;30.10;;;;;;2251181;61;20363;-55
2022/06/19 00:14:08;0.00;0.00;0.62;0.00;0.00;0.62;3.40;2.17;;;30.30;30.10;;;;;;2252234;61;20395;-52
2022/06/19 00:16:53;0.00;0.00;0.62;0.00;0.00;0.62;3.80;2.00;;;30.30;30.10;;;;;;2252249;61;20421;-54
2022/06/19 00:19:38;0.00;0.00;0.62;0.00;0.00;0.62;2.77;2.47;;;30.30;30.10;;;;;;2253144;61;20466;-55
2022/06/19 00:22:22;0.00;0.00;0.62;0.00;0.00;0.62;2.40;1.70;;;30.20;30.00;;;;;;2281757;58;21060;-56
2022/06/19 00:25:09;0.00;0.00;0.62;0.00;0.00;0.62;4.37;2.23;;;30.30;30.10;;;;;;2251700;61;20367;-56
2022/06/19 00:27:55;0.00;0.00;0.62;0.00;0.00;0.62;2.20;2.00;;;30.20;30.10;;;;;;2251582;61;20546;-55
2022/06/19 00:30:40;0.00;0.00;0.62;0.00;0.00;0.62;2.47;1.73;;;30.20;30.00;;;;;;2252095;61;20782;-57
2022/06/19 00:33:25;0.00;0.00;0.62;0.00;0.00;0.62;3.43;2.17;;;30.20;30.00;;;;;;2251207;61;20779;-55
2022/06/19 00:36:10;0.00;0.00;0.62;0.00;0.00;0.62;2.80;2.60;;;30.20;30.10;;;;;;2249204;61;20871;-57
2022/06/19 00:38:56;0.00;0.00;0.62;0.00;0.00;0.62;3.53;2.43;;;30.20;30.10;;;;;;2252424;61;20375;-57
2022/06/19 00:41:44;0.00;0.00;0.62;0.00;0.00;0.62;3.10;2.60;;;30.20;30.10;;;;;;2251647;61;20818;-57
2022/06/19 00:44:29;0.00;0.00;0.62;0.00;0.00;0.62;2.90;2.03;;;30.20;30.10;;;;;;2252123;61;20946;-56
2022/06/19 00:47:18;0.00;0.00;0.62;0.00;0.00;0.62;2.80;2.13;;;30.20;30.10;;;;;;2248593;61;20410;-55
2022/06/19 00:50:22;0.00;0.00;0.62;0.00;0.00;0.62;2.73;1.77;;;30.20;30.10;;;;;;2251541;61;20367;-53
2022/06/19 00:53:11;0.00;0.00;0.62;0.00;0.00;0.62;2.23;2.00;;;30.10;30.10;;;;;;2252475;61;20406;-52
2022/06/19 00:55:57;0.00;0.00;0.62;0.00;0.00;0.62;2.40;2.20;;;30.10;30.10;;;;;;2248678;61;20379;-55
2022/06/19 00:58:45;0.00;0.00;0.62;0.00;0.00;0.62;2.33;1.93;;;30.10;30.10;;;;;;2252034;61;20418;-51
2022/06/19 01:01:31;0.00;0.00;0.62;0.00;0.00;0.62;2.57;2.10;;;30.10;30.10;;;;;;2251849;61;20390;-55
2022/06/19 01:04:24;0.00;0.00;0.62;0.00;0.00;0.62;2.30;2.10;;;30.10;30.10;;;;;;2250732;61;20414;-54
2022/06/19 01:07:09;0.00;0.00;0.62;0.00;0.00;0.62;2.93;2.17;;;30.10;30.20;;;;;;2251947;61;20398;-54
2022/06/19 01:09:54;0.00;0.00;0.62;0.00;0.00;0.62;2.13;1.93;;;30.10;30.20;;;;;;2251633;61;20362;-56
2022/06/19 01:12:40;0.00;0.00;0.62;0.00;0.00;0.62;2.40;2.00;;;30.10;30.20;;;;;;2251601;61;20398;-52
2022/06/19 01:15:27;0.00;0.00;0.62;0.00;0.00;0.62;2.53;2.27;;;30.00;30.10;;;;;;2251651;61;20518;-51
2022/06/19 01:18:13;0.00;0.00;0.62;0.00;0.00;0.62;2.43;2.20;;;30.00;30.10;;;;;;2250834;61;20793;-54
2022/06/19 01:21:15;0.00;0.00;0.62;0.00;0.00;0.62;3.30;2.13;;;30.00;30.10;;;;;;2253536;61;20382;-51
2022/06/19 01:24:08;0.00;0.00;0.62;0.00;0.00;0.62;4.30;2.70;;;30.00;30.10;;;;;;2251517;61;20385;-55
2022/06/19 01:27:00;0.00;0.00;0.62;0.00;0.00;0.62;4.13;2.80;;;30.00;30.10;;;;;;2250763;61;20789;-52
2022/06/19 01:29:45;0.00;0.00;0.62;0.00;0.00;0.62;2.77;2.37;;;30.00;30.20;;;;;;2248928;61;20454;-52
2022/06/19 01:32:33;0.00;0.00;0.62;0.00;0.00;0.62;1.90;1.70;;;29.90;30.10;;;;;;2251260;61;20473;-53
2022/06/19 01:35:22;0.00;0.00;0.62;0.00;0.00;0.62;3.20;2.40;;;29.90;30.20;;;;;;2251601;61;20753;-50
2022/06/19 01:38:15;0.00;0.00;0.62;0.00;0.00;0.62;2.83;2.10;;;29.90;30.10;;;;;;2252024;61;20402;-57
2022/06/19 01:41:06;0.00;0.00;0.62;0.00;0.00;0.62;3.13;2.37;;;29.90;30.20;;;;;;2250952;61;20371;-51
2022/06/19 01:43:52;0.00;0.00;0.62;0.00;0.00;0.62;2.20;1.80;;;29.90;30.20;;;;;;2251811;61;20387;-54
2022/06/19 01:46:37;0.00;0.00;0.62;0.00;0.00;0.62;5.00;2.70;;;29.80;30.10;;;;;;2251489;61;20430;-49
2022/06/19 01:49:23;0.00;0.00;0.62;0.00;0.00;0.62;3.50;2.33;;;29.80;30.10;;;;;;2251261;61;20410;-53
2022/06/19 01:52:08;0.00;0.00;0.62;0.00;0.00;0.62;2.60;2.00;;;29.80;30.30;;;;;;2252037;61;20846;-54
2022/06/19 01:54:58;0.00;0.00;0.62;0.00;0.00;0.62;3.00;2.20;;;29.80;30.30;;;;;;2250439;61;20358;-53
2022/06/19 01:57:46;0.00;0.00;0.62;0.00;0.00;0.62;5.50;2.00;;;29.80;30.30;;;;;;2252204;61;20387;-54
2022/06/19 02:00:35;0.00;0.00;0.62;0.00;0.00;0.62;2.00;1.67;;;29.70;30.20;;;;;;2252199;61;20396;-52
2022/06/19 02:03:27;0.00;0.00;0.62;0.00;0.00;0.62;3.40;2.20;;;29.70;30.20;;;;;;2246540;61;20446;-51
2022/06/19 02:06:17;0.00;0.00;0.62;0.00;0.00;0.62;2.80;2.30;;;29.70;30.20;;;;;;2247850;61;20807;-50
2022/06/19 02:09:05;0.00;0.00;0.62;0.00;0.00;0.62;1.97;1.77;;;29.70;30.20;;;;;;2247631;61;20919;-52
2022/06/19 02:11:50;0.00;0.00;0.62;0.00;0.00;0.62;2.33;1.80;;;29.70;30.20;;;;;;2247790;61;20418;-55
2022/06/19 02:14:35;0.00;0.00;0.62;0.00;0.00;0.62;2.03;1.83;;;29.70;30.20;;;;;;2247834;61;20368;-51
2022/06/19 02:17:32;0.00;0.00;0.62;0.00;0.00;0.62;2.67;2.07;;;29.60;30.10;;;;;;2246598;61;20383;-56
2022/06/19 02:20:18;0.00;0.00;0.62;0.00;0.00;0.62;3.33;1.83;;;29.60;30.10;;;;;;2252704;61;20386;-55
2022/06/19 02:23:05;0.00;0.00;0.62;0.00;0.00;0.62;2.43;2.10;;;29.60;30.10;;;;;;2251900;61;20379;-56
2022/06/19 02:25:51;0.00;0.00;0.62;0.00;0.00;0.62;3.00;1.83;;;29.60;30.10;;;;;;2252044;61;20918;-55
2022/06/19 02:28:38;0.00;0.00;0.62;0.00;0.00;0.62;2.53;1.77;;;29.50;30.10;;;;;;2251839;61;20867;-51
2022/06/19 02:31:23;0.00;0.00;0.62;0.00;0.00;0.62;2.43;1.50;;;29.50;30.10;;;;;;2251497;61;20413;-51
2022/06/19 02:34:32;0.00;0.00;0.62;0.00;0.00;0.62;2.30;1.80;;;29.50;30.10;;;;;;2250957;61;20409;-50
2022/06/19 02:37:21;0.00;0.00;0.62;0.00;0.00;0.62;2.00;1.67;;;29.50;30.10;;;;;;2251345;61;20390;-50
2022/06/19 02:40:20;0.00;0.00;0.62;0.00;0.00;0.62;1.70;1.57;;;29.40;30.00;;;;;;2250506;61;20379;-51
2022/06/19 02:43:12;0.00;0.00;0.62;0.00;0.00;0.62;1.80;1.57;;;29.40;30.00;;;;;;2251038;61;20430;-54
2022/06/19 02:46:00;0.00;0.00;0.62;0.00;0.00;0.62;3.00;1.50;;;29.40;30.00;;;;;;2250553;61;20931;-51
2022/06/19 02:48:44;0.00;0.00;0.62;0.00;0.00;0.62;2.00;1.63;;;29.40;30.00;;;;;;2251262;61;20398;-50
2022/06/19 02:51:31;0.00;0.00;0.62;0.00;0.00;0.62;1.97;1.77;;;29.40;30.00;;;;;;2251014;61;20410;-52
2022/06/19 02:54:15;0.00;0.00;0.62;0.00;0.00;0.62;2.03;1.80;;;29.30;30.00;;;;;;2250623;61;20371;-51
2022/06/19 02:57:01;0.00;0.00;0.62;0.00;0.00;0.62;2.03;1.30;;;29.30;30.20;;;;;;2251366;61;20382;-53
2022/06/19 02:59:46;0.00;0.00;0.62;0.00;0.00;0.62;2.23;1.60;;;29.30;30.00;;;;;;2251464;61;20505;-56
2022/06/19 03:02:31;0.00;0.00;0.62;0.00;0.00;0.62;2.00;1.50;;;29.20;30.00;;;;;;2251125;61;20358;-54
2022/06/19 03:05:21;0.00;0.00;0.62;0.00;0.00;0.62;2.10;1.43;;;29.20;30.00;;;;;;2251266;61;20884;-53
2022/06/19 03:08:07;0.00;0.00;0.62;0.00;0.00;0.62;2.33;1.80;;;29.20;30.00;;;;;;2251199;61;20362;-50
2022/06/19 03:10:52;0.00;0.00;0.62;0.00;0.00;0.62;2.67;1.70;;;29.20;30.00;;;;;;2251244;61;20406;-50
2022/06/19 03:13:38;0.00;0.00;0.62;0.00;0.00;0.62;3.70;1.47;;;29.10;29.90;;;;;;2251404;61;20355;-50
2022/06/19 03:16:22;0.00;0.00;0.62;0.00;0.00;0.62;3.00;1.60;;;29.10;29.90;;;;;;2250532;61;20393;-50
2022/06/19 03:19:07;0.00;0.00;0.62;0.00;0.00;0.62;2.50;1.73;;;29.10;29.90;;;;;;2252320;61;20401;-51
2022/06/19 03:21:52;0.00;0.00;0.62;0.00;0.00;0.62;1.97;1.70;;;29.00;29.90;;;;;;2251769;61;20418;-50
2022/06/19 03:24:39;0.00;0.00;0.62;0.00;0.00;0.62;2.07;1.53;;;29.00;29.90;;;;;;2250704;61;20387;-50
2022/06/19 03:27:44;0.00;0.00;0.62;0.00;0.00;0.62;2.63;1.47;;;29.00;29.90;;;;;;2251491;61;20387;-50
2022/06/19 03:30:55;0.00;0.00;0.62;0.00;0.00;0.62;2.60;1.50;;;28.90;29.90;;;;;;2251088;61;20780;-53
2022/06/19 03:33:59;0.00;0.00;0.62;0.00;0.00;0.62;1.90;1.53;;;28.90;29.90;;;;;;2251314;61;20367;-54
2022/06/19 03:36:53;0.00;0.00;0.62;0.00;0.00;0.62;3.13;1.70;;;28.90;29.90;;;;;;2251373;61;21201;-53
2022/06/19 03:40:12;0.00;0.00;0.62;0.00;0.00;0.62;2.10;1.60;;;28.90;29.90;;;;;;2251252;61;20814;-54
2022/06/19 03:43:02;0.00;0.00;0.62;0.00;0.00;0.62;2.10;1.47;;;28.80;29.90;;;;;;2249600;61;20775;-53
2022/06/19 03:46:14;0.00;0.00;0.62;0.00;0.00;0.62;1.77;1.43;;;28.80;30.00;;;;;;2250688;61;20362;-53
2022/06/19 03:49:27;0.00;0.00;0.62;0.00;0.00;0.62;2.93;1.90;;;28.80;30.00;;;;;;2251701;61;20370;-55
2022/06/19 03:52:20;0.00;0.00;0.62;0.00;0.00;0.62;1.70;1.20;;;28.80;30.00;;;;;;2252022;61;20471;-55
2022/06/19 03:55:07;0.00;0.00;0.62;0.00;0.00;0.62;1.90;1.37;;;28.80;30.00;;;;;;2251497;61;20351;-52
2022/06/19 03:57:52;0.00;0.00;0.62;0.00;0.00;0.62;2.17;1.47;;;28.80;30.00;;;;;;2252052;61;20422;-50
2022/06/19 04:00:37;0.00;0.00;0.62;0.00;0.00;0.62;2.73;1.60;;;28.80;30.00;;;;;;2251218;61;20390;-51
2022/06/19 04:03:22;0.00;0.00;0.62;0.00;0.00;0.62;1.90;1.40;;;28.70;30.00;;;;;;2251873;61;20390;-50
2022/06/19 04:06:09;0.00;0.00;0.62;0.00;0.00;0.62;1.80;1.37;;;28.70;30.00;;;;;;2251981;61;20862;-52
2022/06/19 04:08:55;0.00;0.00;0.62;0.00;0.00;0.62;3.20;1.50;;;28.70;30.00;;;;;;2251466;61;20406;-51
2022/06/19 04:11:42;0.00;0.00;0.62;0.00;0.00;0.62;2.20;1.60;;;28.70;30.00;;;;;;2252107;61;20431;-50
2022/06/19 04:14:27;0.00;0.00;0.62;0.00;0.00;0.62;2.50;1.30;;;28.70;30.10;;;;;;2251308;61;20832;-53
2022/06/19 04:17:12;0.00;0.00;0.62;0.00;0.00;0.62;2.03;1.40;;;28.70;30.10;;;;;;2248276;61;20417;-51
2022/06/19 04:19:57;0.00;0.00;0.62;0.00;0.00;0.62;2.90;1.43;;;28.70;30.10;;;;;;2253820;61;20373;-50
2022/06/19 04:22:41;0.00;0.00;0.62;0.00;0.00;0.62;2.80;1.37;;;28.70;30.10;;;;;;2481164;53;20359;-50
2022/06/19 04:25:26;0.00;0.00;0.62;0.00;0.00;0.62;2.17;1.27;;;28.70;30.20;;;;;;2247988;61;20765;-51
2022/06/19 04:28:13;0.00;0.00;0.62;0.00;0.00;0.62;2.87;1.50;;;28.70;30.20;;;;;;2244601;61;20411;-50
2022/06/19 04:30:57;0.00;0.00;0.62;0.00;0.00;0.62;1.73;1.30;;;28.70;30.30;;;;;;2247239;61;20411;-51
2022/06/19 04:33:42;0.00;0.00;0.62;0.00;0.00;0.62;1.67;1.53;;;28.70;30.30;;;;;;2247738;61;20380;-52
2022/06/19 04:36:29;0.00;0.00;0.62;0.00;0.00;0.62;1.57;1.30;;;28.70;30.30;;;;;;2247363;61;20387;-51
2022/06/19 04:39:14;0.00;0.00;0.62;0.00;0.00;0.62;2.10;1.30;;;28.70;30.30;;;;;;2248599;61;20348;-55
2022/06/19 04:41:59;0.00;0.00;0.62;0.00;0.00;0.62;1.80;1.30;;;28.70;30.30;;;;;;2248291;61;20889;-53
2022/06/19 04:44:45;0.00;0.00;0.62;0.00;0.00;0.62;1.70;1.50;;;28.60;30.20;;;;;;2247390;61;20392;-55
2022/06/19 04:47:30;0.00;0.00;0.62;0.00;0.00;0.62;1.70;1.30;;;28.60;30.30;;;;;;2247780;61;20395;-51
2022/06/19 04:50:15;0.00;0.00;0.62;0.00;0.00;0.62;2.40;1.20;;;28.60;30.30;;;;;;2247849;61;20408;-54
2022/06/19 04:53:01;0.00;0.00;0.62;0.00;0.00;0.62;2.07;1.40;;;28.60;30.30;;;;;;2244099;61;20454;-52
2022/06/19 04:55:45;0.00;0.00;0.62;0.00;0.00;0.62;2.00;1.40;;;28.60;30.40;;;;;;2247710;61;20390;-52
2022/06/19 04:58:30;0.00;0.00;0.62;0.00;0.00;0.62;1.70;1.23;;;28.60;30.30;;;;;;2247661;61;20364;-51
2022/06/19 05:01:23;0.00;0.00;0.62;0.00;0.00;0.62;2.83;1.67;;;28.60;30.40;;;;;;2247105;61;20459;-53
2022/06/19 05:04:11;0.00;0.00;0.62;0.00;0.00;0.62;1.77;1.23;;;28.60;30.40;;;;;;2244494;61;20434;-52
2022/06/19 05:06:56;0.00;0.00;0.62;0.00;0.00;0.62;2.53;1.40;;;28.60;30.40;;;;;;2247638;61;20944;-51
2022/06/19 05:09:41;0.00;0.00;0.62;0.00;0.00;0.62;1.77;1.33;;;28.50;30.40;;;;;;2247748;61;20376;-54
2022/06/19 05:12:25;0.00;0.00;0.62;0.00;0.00;0.62;2.20;1.50;;;28.50;30.30;;;;;;2247760;61;20367;-53
2022/06/19 05:15:11;0.00;0.00;0.62;0.00;0.00;0.62;2.70;1.40;;;28.50;30.30;;;;;;2246975;61;20363;-52
2022/06/19 05:17:58;0.00;0.00;0.62;0.00;0.00;0.62;2.63;1.43;;;28.50;30.40;;;;;;2247576;61;20923;-52
2022/06/19 05:20:43;0.00;0.00;0.62;0.00;0.00;0.62;6.53;1.73;;;28.50;30.30;;;;;;2253156;61;20979;-51
2022/06/19 05:23:28;0.00;0.00;0.62;0.00;0.00;0.62;2.20;1.63;;;28.50;30.30;;;;;;2251246;61;20422;-51
2022/06/19 05:26:18;0.00;0.00;0.62;0.00;0.00;0.62;2.00;1.20;;;28.50;30.30;;;;;;2251932;61;21263;-53
2022/06/19 05:29:04;0.00;0.00;0.62;0.00;0.00;0.62;2.07;1.40;;;28.40;30.20;;;;;;2251272;61;20451;-53
2022/06/19 05:31:50;0.00;0.00;0.62;0.00;0.00;0.62;1.97;1.40;;;28.40;30.20;;;;;;2251896;61;20409;-54
2022/06/19 05:34:37;0.00;0.00;0.62;0.00;0.00;0.62;3.13;1.80;;;28.40;30.10;;;;;;2251914;61;20370;-56
2022/06/19 05:37:22;0.00;0.00;0.62;0.00;0.00;0.62;1.87;1.40;;;28.40;30.20;;;;;;2251012;61;20445;-55
2022/06/19 05:40:09;0.00;0.00;0.62;0.00;0.00;0.62;2.00;1.30;;;28.40;30.10;;;;;;2252004;61;20398;-54
2022/06/19 05:42:54;0.00;0.00;0.62;0.00;0.00;0.62;2.17;1.53;;;28.40;30.10;;;;;;2251493;61;20445;-52
2022/06/19 05:45:39;0.00;0.00;0.62;0.00;0.00;0.62;3.30;1.53;;;28.40;30.10;;;;;;2251476;61;20413;-57
2022/06/19 05:48:25;0.00;0.00;0.62;0.00;0.00;0.62;3.07;1.40;;;28.40;30.00;;;;;;2252302;61;20431;-54
2022/06/19 05:51:14;0.00;0.00;0.62;0.00;0.00;0.62;4.40;1.43;;;28.40;30.00;;;;;;2251597;61;20839;-55
2022/06/19 05:53:59;0.00;0.00;0.62;0.00;0.00;0.62;2.73;1.33;;;28.30;30.00;;;;;;2251600;61;20367;-55
2022/06/19 05:56:44;0.00;0.00;0.62;0.00;0.00;0.62;2.07;1.30;;;28.30;30.00;;;;;;2251475;61;20414;-54
2022/06/19 05:59:29;0.00;0.00;0.62;0.00;0.00;0.62;6.53;1.80;;;28.30;29.90;;;;;;2247700;61;20394;-53
2022/06/19 06:02:16;0.00;0.00;0.62;0.00;0.00;0.62;3.83;1.60;;;28.30;29.90;;;;;;2251879;61;20410;-52
2022/06/19 06:05:01;0.00;0.00;0.62;0.00;0.00;0.62;4.13;1.63;;;28.30;29.80;;;;;;2251244;61;20431;-55
2022/06/19 06:07:49;0.00;0.00;0.62;0.00;0.00;0.62;2.77;1.70;;;28.30;29.60;;;;;;2251079;61;20383;-55
2022/06/19 06:10:34;0.00;0.00;0.62;0.00;0.00;0.62;2.27;1.53;;;28.20;29.40;;;;;;2251846;61;20402;-54
2022/06/19 06:13:19;0.00;0.00;0.62;0.00;0.00;0.62;6.63;1.70;;;28.20;29.40;;;;;;2255282;61;20389;-61
2022/06/19 06:16:05;0.00;0.00;0.62;0.00;0.00;0.62;5.20;2.03;;;28.20;29.30;;;;;;2251870;61;21007;-55
2022/06/19 06:18:50;0.00;0.00;0.62;0.00;0.00;0.62;3.93;2.20;;;28.20;29.30;;;;;;2251574;61;20942;-56
2022/06/19 06:21:35;0.00;0.00;0.62;0.00;0.00;0.62;6.20;1.60;;;28.20;29.30;;;;;;2250653;61;20465;-59
2022/06/19 06:24:21;0.00;0.00;0.62;0.00;0.00;0.62;4.33;2.03;;;28.10;29.20;;;;;;2251806;61;20382;-57
2022/06/19 06:27:07;0.00;0.00;0.62;0.00;0.00;0.62;3.50;2.53;;;28.10;29.10;;;;;;2278463;58;20432;-56
2022/06/19 06:29:51;0.00;0.00;0.62;0.00;0.00;0.62;4.80;1.90;;;28.10;28.90;;;;;;2251386;61;20418;-56
2022/06/19 06:32:36;0.00;0.00;0.62;0.00;0.00;0.62;4.13;2.00;;;28.10;28.80;;;;;;2251833;61;20362;-53
2022/06/19 06:35:21;0.00;0.00;0.62;0.00;0.00;0.62;3.30;1.70;;;28.10;28.70;;;;;;2251331;61;20858;-56
2022/06/19 06:38:06;0.00;0.00;0.62;0.00;0.00;0.62;4.30;1.80;;;28.10;28.70;;;;;;2251436;61;20413;-54
2022/06/19 06:40:53;0.00;0.00;0.62;0.00;0.00;0.62;3.90;1.83;;;28.10;28.40;;;;;;2251516;61;20362;-52
2022/06/19 06:43:40;0.00;0.00;0.62;0.00;0.00;0.62;4.83;2.30;;;28.00;28.00;;;;;;2250448;61;20914;-54
2022/06/19 06:46:27;0.00;0.00;0.62;0.00;0.00;0.62;3.70;1.73;;;28.00;28.00;;;;;;2254615;61;20448;-52
2022/06/19 06:49:12;0.00;0.00;0.62;0.00;0.00;0.62;3.90;1.70;;;28.00;27.90;;;;;;2256227;61;20385;-55
2022/06/19 06:51:57;0.00;0.00;0.62;0.00;0.00;0.62;4.20;1.80;;;28.00;27.90;;;;;;2255746;61;20882;-58
2022/06/19 06:54:43;0.00;0.00;0.62;0.00;0.00;0.62;5.27;2.20;;;28.00;28.00;;;;;;2255930;61;20375;-55
2022/06/19 06:57:29;0.00;0.00;0.62;0.00;0.00;0.62;3.40;1.50;;;27.90;27.80;;;;;;2252583;61;20382;-55
2022/06/19 07:00:19;0.00;0.00;0.62;0.00;0.00;0.62;4.70;1.90;;;27.90;27.90;;;;;;2255873;61;20429;-58
2022/06/19 07:03:05;0.00;0.00;0.62;0.00;0.00;0.62;2.90;1.90;;;27.90;28.00;;;;;;2255857;61;20365;-56
2022/06/19 07:05:50;0.00;0.00;0.62;0.00;0.00;0.62;3.43;1.97;;;27.90;28.00;;;;;;2400083;53;20403;-53
2022/06/19 07:08:36;0.00;0.00;0.62;0.00;0.00;0.62;2.93;1.83;;;27.90;28.00;;;;;;2248922;61;20360;-57
2022/06/19 07:11:24;0.00;0.00;0.62;0.00;0.00;0.62;7.17;2.20;;;27.90;27.90;;;;;;2248412;61;20351;-56
2022/06/19 07:14:10;0.00;0.00;0.62;0.00;0.00;0.62;3.30;1.70;;;27.90;27.80;;;;;;2247048;61;20363;-52
2022/06/19 07:16:56;0.00;0.00;0.62;0.00;0.00;0.62;3.27;2.20;;;27.90;28.40;;;;;;2249305;61;20962;-54
2022/06/19 07:19:41;0.00;0.00;0.62;0.00;0.00;0.62;3.60;1.80;;;27.90;27.90;;;;;;2251976;61;20409;-51
2022/06/19 07:22:28;0.00;0.00;0.62;0.00;0.00;0.62;6.10;2.50;;;27.90;27.80;;;;;;2260369;61;20891;-51
2022/06/19 07:25:16;0.00;0.00;0.62;0.00;0.00;0.62;3.93;1.77;;;27.90;27.80;;;;;;2248422;61;21044;-56
2022/06/19 07:28:01;0.00;0.00;0.62;0.00;0.00;0.62;4.37;2.00;;;27.90;27.80;;;;;;2251735;61;20781;-54
2022/06/19 07:30:47;0.00;0.00;0.62;0.00;0.00;0.62;4.13;2.20;;;27.90;27.70;;;;;;2252099;61;20911;-54
2022/06/19 07:33:32;0.00;0.00;0.62;0.00;0.00;0.62;5.77;1.90;;;27.90;27.70;;;;;;2248930;61;20371;-54
2022/06/19 07:36:21;0.00;0.00;0.62;0.00;0.00;0.62;7.40;2.30;;;27.90;27.70;;;;;;2251731;61;20835;-50
2022/06/19 07:39:06;0.00;0.00;0.62;0.00;0.00;0.62;5.27;2.40;;;27.90;27.80;;;;;;2252090;61;20441;-50
2022/06/19 07:41:51;0.00;0.00;0.62;0.00;0.00;0.62;6.83;3.13;;;27.90;27.70;;;;;;2251580;61;20414;-51
2022/06/19 07:44:36;0.00;0.00;0.62;0.00;0.00;0.62;4.73;2.53;;;27.80;28.20;;;;;;2248094;61;20390;-49
2022/06/19 07:50:28;0.00;0.00;0.62;0.00;0.00;0.62;3.23;1.93;;;27.80;27.70;;;;;;2251224;61;20359;-50
2022/06/19 07:53:12;0.00;0.00;0.62;0.00;0.00;0.62;3.77;2.03;;;27.80;27.70;;;;;;2251727;61;20446;-52
2022/06/19 07:55:57;0.00;0.00;0.62;0.00;0.00;0.62;4.93;2.10;;;27.80;27.80;;;;;;2251580;61;20899;-49
2022/06/19 07:58:43;0.00;0.00;0.62;0.00;0.00;0.62;4.53;2.40;;;27.80;27.80;;;;;;2247930;61;20359;-49
2022/06/19 08:01:28;0.00;0.00;0.62;0.00;0.00;0.62;7.07;2.87;;;27.80;27.80;;;;;;2252124;61;20417;-61
2022/06/19 08:04:14;0.00;0.00;0.62;0.00;0.00;0.62;6.87;2.73;;;27.80;27.90;;;;;;2251805;61;20398;-50
2022/06/19 08:06:59;0.00;0.00;0.62;0.00;0.00;0.62;4.07;1.90;;;27.80;28.20;;;;;;2251258;61;20510;-49
2022/06/19 08:09:46;0.00;0.00;0.62;0.00;0.00;0.62;6.23;2.53;;;27.80;28.30;;;;;;2251387;61;20344;-49
2022/06/19 08:12:30;0.00;0.00;0.62;0.00;0.00;0.62;5.63;2.57;;;27.80;28.40;;;;;;2251672;61;20378;-53
2022/06/19 08:15:18;0.00;0.00;0.62;0.00;0.00;0.62;4.07;2.43;;;27.80;28.40;;;;;;2251536;61;20428;-51
2022/06/19 08:18:03;0.00;0.00;0.62;0.00;0.00;0.62;7.17;2.43;;;27.80;28.40;;;;;;2249018;61;20817;-52
2022/06/19 08:20:50;0.00;0.00;0.62;0.00;0.00;0.62;5.10;2.20;;;27.80;28.90;;;;;;2253578;61;20397;-56
2022/06/19 08:23:35;0.00;0.00;0.62;0.00;0.00;0.62;9.73;3.03;;;27.80;28.40;;;;;;2261538;58;20998;-52
2022/06/19 08:26:20;0.00;0.00;0.62;0.00;0.00;0.62;3.20;1.90;;;27.80;28.40;;;;;;2251471;61;20441;-52
2022/06/19 08:29:05;0.00;0.00;0.62;0.00;0.00;0.62;4.23;2.37;;;27.80;28.40;;;;;;2486134;53;20902;-54
2022/06/19 08:31:50;0.00;0.00;0.62;0.00;0.00;0.62;4.87;2.00;;;27.80;28.40;;;;;;2251816;61;20418;-52
2022/06/19 08:34:36;0.00;0.00;0.62;0.00;0.00;0.62;4.47;2.30;;;27.80;28.40;;;;;;2250851;61;20894;-52
2022/06/19 08:37:22;0.00;0.00;0.62;0.00;0.00;0.62;4.77;2.53;;;27.80;28.40;;;;;;2248363;61;20942;-52
2022/06/19 08:40:21;0.00;0.00;0.62;0.00;0.00;0.62;5.53;2.80;;;27.90;28.40;;;;;;2251790;61;20363;-53
2022/06/19 08:43:25;0.00;0.00;0.62;0.00;0.00;0.62;4.03;2.40;;;27.90;28.40;;;;;;2251061;61;20359;-51
2022/06/19 08:46:24;0.00;0.00;0.62;0.00;0.00;0.62;6.47;2.77;;;27.90;28.40;;;;;;2251800;61;20402;-54
2022/06/19 08:49:32;0.00;0.00;0.62;0.00;0.00;0.62;6.40;2.80;;;27.90;28.30;;;;;;2251422;61;21092;-53
2022/06/19 08:52:32;0.00;0.00;0.62;0.00;0.00;0.62;5.83;3.10;;;27.90;28.30;;;;;;2251654;61;20775;-51
2022/06/19 08:55:28;0.00;0.00;0.62;0.00;0.00;0.62;4.70;2.40;;;27.90;28.40;;;;;;2250823;61;20418;-52
2022/06/19 08:58:25;0.00;0.00;0.62;0.00;0.00;0.62;6.07;3.30;;;27.90;28.40;;;;;;2248369;61;20390;-54
2022/06/19 09:01:19;0.00;0.00;0.62;0.00;0.00;0.62;6.73;3.00;;;27.90;28.40;;;;;;2249389;61;20459;-55
2022/06/19 09:07:35;0.00;0.00;0.62;0.00;0.00;0.62;4.30;2.53;;;27.90;28.40;;;;;;2252129;61;20494;-54
2022/06/19 09:10:38;0.00;0.00;0.62;0.00;0.00;0.62;6.70;3.30;;;27.90;28.40;;;;;;2251820;61;20386;-56
2022/06/19 09:13:58;0.00;0.00;0.62;0.00;0.00;0.62;5.43;2.90;;;27.90;28.50;;;;;;2250583;61;20366;-51
2022/06/19 09:16:57;0.00;0.00;0.62;0.00;0.00;0.62;7.63;3.00;;;27.90;28.50;;;;;;2252822;61;20411;-50
2022/06/19 09:19:51;0.00;0.00;0.62;0.00;0.00;0.62;9.03;3.17;;;27.90;28.60;;;;;;2252263;61;20366;-50
2022/06/19 09:22:56;0.00;0.00;0.62;0.00;0.00;0.62;6.20;3.23;;;27.90;28.60;;;;;;2666604;45;20410;-55
2022/06/19 09:25:48;0.00;0.00;0.62;0.00;0.00;0.62;4.40;2.60;;;27.90;28.60;;;;;;2247426;61;20391;-56
2022/06/19 09:28:42;0.00;0.00;0.62;0.00;0.00;0.62;7.73;2.40;;;27.90;28.60;;;;;;2247353;61;20356;-52
2022/06/19 09:31:33;0.00;0.00;0.62;0.00;0.00;0.62;3.77;2.57;;;27.90;28.60;;;;;;2247732;61;20772;-51
2022/06/19 09:34:25;0.00;0.00;0.62;0.00;0.00;0.62;5.20;2.70;;;27.90;28.70;;;;;;2247590;61;20422;-52
2022/06/19 09:37:17;0.00;0.00;0.62;0.00;0.00;0.62;3.80;2.20;;;27.90;28.60;;;;;;2269334;61;20947;-55
2022/06/19 09:40:13;0.00;0.00;0.62;0.00;0.00;0.62;5.37;3.20;;;27.90;28.60;;;;;;2251351;61;20455;-52
2022/06/19 09:43:06;0.00;0.00;0.62;0.00;0.00;0.62;6.40;2.93;;;28.00;28.60;;;;;;2250928;61;20776;-52
2022/06/19 09:45:55;0.00;0.00;0.62;0.00;0.00;0.62;6.40;2.80;;;28.00;28.40;;;;;;2248333;61;20423;-54
2022/06/19 09:48:47;0.00;0.00;0.62;0.00;0.00;0.62;10.60;2.47;;;28.00;28.40;;;;;;2250591;61;20530;-54
2022/06/19 09:51:38;0.00;0.00;0.62;0.00;0.00;0.62;4.80;2.80;;;28.00;28.30;;;;;;2251824;61;20398;-54
2022/06/19 09:54:29;0.00;0.00;0.62;0.00;0.00;0.62;4.23;2.50;;;28.00;28.30;;;;;;2247858;61;20410;-56
2022/06/19 09:57:21;0.00;0.00;0.62;0.00;0.00;0.62;5.30;2.67;;;28.00;28.30;;;;;;2250923;61;20812;-55
2022/06/19 10:00:11;0.00;0.00;0.62;0.00;0.00;0.62;6.20;3.13;;;28.10;28.30;;;;;;2251597;61;20359;-56
2022/06/19 10:03:04;0.00;0.00;0.62;0.00;0.00;0.62;3.77;2.57;;;28.10;28.30;;;;;;2251157;61;20411;-56
2022/06/19 10:05:55;0.00;0.00;0.62;0.00;0.00;0.62;8.93;3.10;;;28.10;28.30;;;;;;2251372;61;20531;-57
2022/06/19 10:08:44;0.00;0.00;0.62;0.00;0.00;0.62;5.47;2.40;;;28.10;28.20;;;;;;2250993;61;20447;-51
2022/06/19 10:11:34;0.00;0.00;0.62;0.00;0.00;0.62;6.23;2.70;;;28.10;28.10;;;;;;2251195;61;20363;-57
2022/06/19 10:14:31;0.00;0.00;0.62;0.00;0.00;0.62;4.70;2.30;;;28.10;28.70;;;;;;2252051;61;20411;-55
2022/06/19 10:17:23;0.00;0.00;0.62;0.00;0.00;0.62;4.30;2.10;;;28.10;28.10;;;;;;2251434;61;20422;-57
2022/06/19 10:20:16;0.00;0.00;0.62;0.00;0.00;0.62;6.13;2.23;;;28.10;28.10;;;;;;2252738;61;20370;-56
2022/06/19 10:23:13;0.00;0.00;0.62;0.00;0.00;0.62;5.30;2.40;;;28.20;28.10;;;;;;2247625;61;20503;-54
2022/06/19 10:26:18;0.00;0.00;0.62;0.00;0.00;0.62;6.40;2.40;;;28.10;28.00;;;;;;2246617;61;20419;-52
2022/06/19 10:29:20;0.00;0.00;0.62;0.00;0.00;0.62;5.07;2.47;;;28.10;28.00;;;;;;2247342;61;20387;-55
2022/06/19 10:32:27;0.00;0.00;0.62;0.00;0.00;0.62;5.73;2.87;;;28.10;28.00;;;;;;2247054;61;20387;-52
2022/06/19 10:35:21;0.00;0.00;0.62;0.00;0.00;0.62;5.83;2.83;;;28.20;28.00;;;;;;2246893;61;21060;-54
2022/06/19 10:38:23;0.00;0.00;0.62;0.00;0.00;0.62;3.90;2.43;;;28.20;28.00;;;;;;2247320;61;20423;-53
2022/06/19 10:44:26;0.00;0.00;0.62;0.00;0.00;0.62;6.30;3.17;;;28.20;27.90;;;;;;2247270;61;20392;-52
2022/06/19 10:47:22;0.00;0.00;0.62;0.00;0.00;0.62;6.63;3.20;;;28.20;27.90;;;;;;2246937;61;20796;-52
2022/06/19 10:50:21;0.00;0.00;0.62;0.00;0.00;0.62;5.37;3.47;;;28.30;27.80;;;;;;2247378;61;20368;-52
2022/06/19 10:53:21;0.00;0.00;0.62;0.00;0.00;0.62;4.67;2.50;;;28.30;27.80;;;;;;2247192;61;20380;-57
2022/06/19 10:56:15;0.00;0.00;0.62;0.00;0.00;0.62;6.97;3.20;;;28.30;27.90;;;;;;2246879;61;20404;-52
2022/06/19 10:59:00;0.00;0.00;0.62;0.00;0.00;0.62;6.60;3.10;;;28.30;27.90;;;;;;2247568;61;20464;-53
2022/06/19 11:05:01;0.00;0.00;0.62;0.00;0.00;0.62;6.30;3.10;;;28.30;27.80;;;;;;2247965;61;21022;-57
2022/06/19 11:07:46;0.00;0.00;0.62;0.00;0.00;0.62;8.13;3.10;;;28.40;27.90;;;;;;2248374;61;20419;-53
2022/06/19 11:10:40;0.00;0.00;0.62;0.00;0.00;0.62;5.43;3.07;;;28.30;27.80;;;;;;2247509;61;20403;-53
2022/06/19 11:13:59;0.00;0.00;0.62;0.00;0.00;0.62;5.90;2.93;;;28.40;27.90;;;;;;2244805;61;20488;-52
2022/06/19 11:16:56;0.00;0.00;0.62;0.00;0.00;0.62;5.50;3.03;;;28.40;27.90;;;;;;2247648;61;20403;-53
2022/06/19 11:19:45;0.00;0.00;0.62;0.00;0.00;0.62;5.50;2.57;;;28.40;28.00;;;;;;2250790;61;20898;-50